This demonstration page uses our WeatherBlox Daily Observations layout. Learn more.

Left ArrowRight Arrow

41.55636, -103.73856

Hourly Observations for October 31, 2015

Temp ( °F °C ) Dew Point ( °F °C ) Humidity (%) Winds ( mph kmh ) Pressure ( in mb ) Visibility ( mi km ) Precip ( " mm )
12:53 am 00:53 Mostly Clear 37 2.8 31 -0.6 79 79 NE 3 6 29.69 1005 10 16.0934 0 0
1:53 am 01:53 Clear 42 5.6 30 -1.1 62 62 WNW 15 24 29.69 1005 10 16.0934 0 0
2:53 am 02:53 Clear 48 8.9 30 -1.1 50 50 WNW 16 26 29.7 1006 10 16.0934 0 0
3:53 am 03:53 Clear 47 8.3 30 -1.1 52 52 WNW 14 22 29.71 1006 10 16.0934 0 0
4:53 am 04:53 Clear 47 8.3 30 -1.1 52 52 WNW 17 28 29.72 1007 10 16.0934 0 0
5:53 am 05:53 Clear 47 8.3 30 -1.1 52 52 WNW 18 30 29.78 1008 10 16.0934 0 0
6:53 am 06:53 Partly Cloudy 47 8.3 31 -0.6 54 54 WNW 16 26 29.81 1009 10 16.0934 0 0
7:53 am 07:53 Sunny 44 6.7 32 0 63 63 NW 13 20 29.85 1011 10 16.0934 0 0
8:53 am 08:53 Sunny 48 8.9 33 0.6 56 56 NW 16 26 29.89 1012 10 16.0934 0 0
9:53 am 09:53 Sunny 53 11.7 33 0.6 47 47 NW 18 30 29.9 1013 10 16.0934 0 0
10:53 am 10:53 Sunny 56 13.3 33 0.6 42 42 NW 17 28 29.88 1012 10 16.0934 0 0
11:53 am 11:53 Sunny 61 16.1 34 1.1 36 36 WNW 12 19 29.86 1011 10 16.0934 0 0
12:53 pm 12:53 Sunny 63 17.2 34 1.1 34 34 NW 13 20 29.84 1010 10 16.0934 0 0
1:53 pm 13:53 Sunny 67 19.4 33 0.6 28 28 WNW 16 26 29.77 1008 10 16.0934 0 0
2:53 pm 14:53 Partly Cloudy 66 18.9 32 0 28 28 W 12 19 29.75 1007 10 16.0934 0 0
3:53 pm 15:53 Sunny 70 21.1 34 1.1 27 27 W 17 28 29.72 1007 10 16.0934 0 0
4:53 pm 16:53 Sunny 67 19.4 35 1.7 31 31 W 18 30 29.75 1007 10 16.0934 0 0
5:53 pm 17:53 Clear 64 17.8 34 1.1 33 33 W 14 22 29.76 1008 10 16.0934 0 0
6:53 pm 18:53 Clear 63 17.2 34 1.1 34 34 W 18 30 29.78 1008 10 16.0934 0 0
7:53 pm 19:53 Clear 60 15.6 34 1.1 38 38 W 14 22 29.82 1010 10 16.0934 0 0
8:53 pm 20:53 Clear 58 14.4 34 1.1 41 41 W 15 24 29.81 1010 10 16.0934 0 0

Powered by AerisWeather